Wolcott, Colorado
Current Conditions -  °F | °C
As of 6:15 AM on Monday 22 Dec 2014 (Local Time) from KEGE Reporting Station
Overcast Overcast  
Wind Chill: 25°   Ceiling: 9000
Heat Index: 30°   Visibility: 10mi
Dew Point: 27°   Wind: 5mph
Humidity: 86%   Direction: 100°E
Pressure: 29.86"   Gusts: NA
Location:  39.7°N, 106.68°W
Report Text: KEGE 221315Z AUTO 10004KT 10SM FEW065 SCT080 OVC090 M01/M03 A2986 RMK AO1
Loading
Personal Weather Stations






























Interactive Weather Map New forecast layout! Learn more

10-Day Weather Forecast

Advertisements
Track Severe Weather on mobile